createdAt,value
2024-01-14T00:47:31.526Z,11.37
2024-01-14T00:50:12.071Z,12.30
2024-01-14T00:52:52.282Z,12.00
2024-01-14T00:55:34.009Z,11.40
2024-01-14T00:58:14.533Z,10.13
2024-01-14T01:00:55.185Z,13.10
2024-01-14T01:03:35.679Z,10.70
2024-01-14T01:06:15.820Z,11.63
2024-01-14T01:08:56.165Z,12.03
2024-01-14T01:11:36.340Z,13.43
2024-01-14T01:14:16.724Z,13.00
2024-01-14T01:16:57.050Z,12.07
2024-01-14T01:19:37.408Z,14.00
2024-01-14T01:22:17.495Z,10.53
2024-01-14T01:24:57.462Z,12.63
2024-01-14T01:27:37.705Z,14.03
2024-01-14T01:30:18.327Z,13.93
2024-01-14T01:32:59.083Z,13.70
2024-01-14T01:35:39.659Z,13.13
2024-01-14T01:38:19.957Z,14.77
2024-01-14T01:41:00.221Z,11.90
2024-01-14T01:43:40.361Z,10.30
2024-01-14T01:46:20.715Z,13.07
2024-01-14T01:49:01.902Z,10.83
2024-01-14T01:51:48.409Z,11.93
2024-01-14T01:54:30.550Z,12.30
2024-01-14T01:57:11.513Z,12.07
2024-01-14T01:59:52.377Z,11.33
2024-01-14T02:02:33.408Z,12.53
2024-01-14T02:05:14.563Z,11.67
2024-01-14T02:07:55.160Z,12.03
2024-01-14T02:10:35.460Z,11.53
2024-01-14T02:13:15.355Z,12.00
2024-01-14T02:15:55.585Z,10.97
2024-01-14T02:18:36.107Z,11.63
2024-01-14T02:21:20.796Z,8.93
2024-01-14T02:24:19.125Z,11.47
2024-01-14T02:26:59.790Z,11.40
2024-01-14T02:29:40.427Z,10.50
2024-01-14T02:32:20.472Z,11.93
2024-01-14T02:35:00.741Z,10.97
2024-01-14T02:37:45.311Z,11.03
2024-01-14T02:40:25.795Z,12.53
2024-01-14T02:43:06.255Z,9.70
2024-01-14T02:45:46.642Z,11.27
2024-01-14T02:48:26.647Z,10.90
2024-01-14T02:51:07.104Z,7.83
2024-01-14T02:53:46.994Z,9.63
2024-01-14T02:56:27.238Z,10.97
2024-01-14T02:59:07.066Z,12.37
2024-01-14T03:01:49.925Z,11.17
2024-01-14T03:04:30.059Z,10.80
2024-01-14T03:07:10.296Z,10.80
2024-01-14T03:09:50.624Z,10.63
2024-01-14T03:12:30.691Z,10.93
2024-01-14T03:15:11.201Z,10.70
2024-01-14T03:17:51.899Z,11.40
2024-01-14T03:20:31.963Z,10.13
2024-01-14T03:23:12.334Z,9.97
2024-01-14T03:25:52.631Z,11.10
2024-01-14T03:28:32.901Z,10.80
2024-01-14T03:31:17.016Z,9.70
2024-01-14T03:33:57.467Z,8.03
2024-01-14T03:36:37.945Z,10.97
2024-01-14T03:39:18.201Z,11.27
2024-01-14T03:41:58.271Z,11.23
2024-01-14T03:44:38.536Z,11.27
2024-01-14T03:47:18.699Z,9.47
2024-01-14T03:49:58.668Z,10.40
2024-01-14T03:52:38.901Z,10.67
2024-01-14T03:55:19.008Z,7.30
2024-01-14T03:57:59.592Z,11.30
2024-01-14T04:00:39.716Z,12.20
2024-01-14T04:03:20.405Z,10.40
2024-01-14T04:06:05.670Z,11.07
2024-01-14T04:08:46.003Z,10.50
2024-01-14T04:11:26.311Z,10.43
2024-01-14T04:14:06.505Z,11.13
2024-01-14T04:16:47.060Z,8.97
2024-01-14T04:19:28.284Z,10.37
2024-01-14T04:22:08.636Z,9.80
2024-01-14T04:24:49.054Z,8.17
2024-01-14T04:27:29.124Z,9.73
2024-01-14T04:30:09.789Z,9.33
2024-01-14T04:32:50.985Z,8.83
2024-01-14T04:35:31.541Z,9.10
2024-01-14T04:38:12.503Z,9.40
2024-01-14T04:40:52.744Z,10.10
2024-01-14T04:43:32.889Z,8.57
2024-01-14T04:46:13.070Z,10.87
2024-01-14T04:48:53.486Z,8.33
2024-01-14T04:51:33.705Z,10.93
2024-01-14T04:54:13.743Z,10.90
2024-01-14T04:56:54.137Z,11.20
2024-01-14T04:59:34.603Z,10.40
2024-01-14T05:02:14.662Z,10.30
2024-01-14T05:04:54.851Z,8.73
2024-01-14T05:07:35.119Z,9.53
2024-01-14T05:10:15.560Z,10.27
2024-01-14T05:12:55.544Z,9.30
2024-01-14T05:15:35.820Z,10.83
2024-01-14T05:18:17.025Z,7.60
2024-01-14T05:20:58.212Z,10.70
2024-01-14T05:23:38.468Z,10.60
2024-01-14T05:26:18.845Z,10.00
2024-01-14T05:29:01.412Z,10.47
2024-01-14T05:31:41.814Z,8.47
2024-01-14T05:34:22.302Z,9.10
2024-01-14T05:37:02.689Z,8.47
2024-01-14T05:39:43.221Z,10.60
2024-01-14T05:42:23.415Z,9.47
2024-01-14T05:45:03.619Z,8.90
2024-01-14T05:47:44.070Z,10.60
2024-01-14T05:50:24.519Z,10.50
2024-01-14T05:53:04.605Z,10.20
2024-01-14T05:55:44.853Z,8.93
2024-01-14T05:58:24.894Z,8.63
2024-01-14T06:01:05.050Z,9.73
2024-01-14T06:03:44.977Z,10.27
2024-01-14T06:06:25.392Z,10.13
2024-01-14T06:09:05.853Z,10.43
2024-01-14T06:11:46.017Z,9.20
2024-01-14T06:14:26.162Z,10.50
2024-01-14T06:17:06.653Z,10.90
2024-01-14T06:19:46.933Z,11.03
2024-01-14T06:22:27.146Z,9.50
2024-01-14T06:25:07.605Z,10.07
2024-01-14T06:27:47.730Z,10.73
2024-01-14T06:30:27.919Z,9.33
2024-01-14T06:33:08.347Z,8.47
2024-01-14T06:35:48.384Z,9.57
2024-01-14T06:38:28.734Z,9.70
2024-01-14T06:41:11.046Z,10.20
2024-01-14T06:43:51.734Z,11.47
2024-01-14T06:46:31.927Z,9.57
2024-01-14T06:49:12.531Z,8.40
2024-01-14T06:51:53.091Z,9.43
2024-01-14T06:54:33.291Z,8.87
2024-01-14T06:57:13.645Z,8.97
2024-01-14T06:59:53.858Z,9.40
2024-01-14T07:02:34.119Z,9.90
2024-01-14T07:05:14.999Z,9.60
2024-01-14T07:07:55.177Z,8.87
2024-01-14T07:10:35.433Z,8.60
2024-01-14T07:13:15.657Z,8.97
2024-01-14T07:15:56.322Z,9.00
2024-01-14T07:18:36.520Z,8.60
2024-01-14T07:21:16.601Z,7.50
2024-01-14T07:23:56.853Z,7.70
2024-01-14T07:26:37.346Z,8.50
2024-01-14T07:29:17.714Z,8.57
2024-01-14T07:31:57.985Z,8.50
2024-01-14T07:34:40.009Z,10.17
2024-01-14T07:37:20.440Z,9.00
2024-01-14T07:40:01.602Z,9.97
2024-01-14T07:42:41.886Z,8.67
2024-01-14T07:45:22.268Z,9.23
2024-01-14T07:48:03.673Z,8.30
2024-01-14T07:50:43.928Z,9.83
2024-01-14T07:53:24.122Z,9.30
2024-01-14T07:56:04.793Z,8.10
2024-01-14T07:58:44.755Z,9.10
2024-01-14T08:01:25.130Z,8.40
2024-01-14T08:04:05.647Z,8.07
2024-01-14T08:06:45.798Z,8.57
2024-01-14T08:09:26.222Z,8.87
2024-01-14T08:12:06.520Z,9.20
2024-01-14T08:14:46.772Z,9.30
2024-01-14T08:17:28.140Z,8.70
2024-01-14T08:20:09.833Z,7.43
2024-01-14T08:22:50.318Z,9.67
2024-01-14T08:25:30.563Z,9.57
2024-01-14T08:28:10.661Z,7.57
2024-01-14T08:30:51.004Z,9.03
2024-01-14T08:33:31.367Z,8.63
2024-01-14T08:36:12.538Z,8.23
2024-01-14T08:38:52.694Z,9.00
2024-01-14T08:41:32.767Z,8.87
2024-01-14T08:44:13.114Z,8.83
2024-01-14T08:46:53.605Z,9.67
2024-01-14T08:49:34.033Z,8.13
2024-01-14T08:52:14.424Z,8.67
2024-01-14T08:54:54.502Z,10.50
2024-01-14T08:57:34.803Z,9.43
2024-01-14T09:00:15.485Z,10.63
2024-01-14T09:02:55.725Z,10.37
2024-01-14T09:05:35.937Z,9.10
2024-01-14T09:08:16.160Z,8.23
2024-01-14T09:10:56.191Z,9.53
2024-01-14T09:13:36.405Z,9.67
2024-01-14T09:16:16.568Z,10.53
2024-01-14T09:18:57.101Z,9.67
2024-01-14T09:21:37.327Z,9.03
2024-01-14T09:24:17.807Z,9.67
2024-01-14T09:26:57.930Z,9.40
2024-01-14T09:29:38.677Z,9.73
2024-01-14T09:32:18.842Z,9.03
2024-01-14T09:34:59.208Z,7.67
2024-01-14T09:37:39.569Z,8.80
2024-01-14T09:40:19.802Z,7.00
2024-01-14T09:43:03.532Z,8.87
2024-01-14T09:45:47.491Z,8.70
2024-01-14T09:48:29.926Z,8.60
2024-01-14T09:51:12.093Z,7.17
2024-01-14T09:53:52.793Z,9.33
2024-01-14T09:56:34.063Z,8.93
2024-01-14T09:59:18.122Z,8.23
2024-01-14T10:01:58.446Z,9.00
2024-01-14T10:04:42.357Z,8.37
2024-01-14T10:07:24.166Z,7.93
2024-01-14T10:10:07.928Z,8.10
2024-01-14T10:12:49.661Z,8.27
2024-01-14T10:15:34.961Z,8.03
2024-01-14T10:18:18.416Z,8.63
2024-01-14T10:21:01.331Z,8.90
2024-01-14T10:23:42.227Z,9.13
2024-01-14T10:26:26.152Z,9.60
2024-01-14T10:29:06.223Z,9.50
2024-01-14T10:31:47.469Z,10.73
2024-01-14T10:34:28.969Z,9.27
2024-01-14T10:37:09.822Z,9.97
2024-01-14T10:39:52.849Z,9.53
2024-01-14T10:42:33.455Z,10.20
2024-01-14T10:45:13.759Z,10.17
2024-01-14T10:47:58.277Z,10.63
2024-01-14T10:50:45.757Z,10.70
2024-01-14T10:53:45.833Z,8.73
2024-01-14T10:56:37.970Z,8.60
2024-01-14T10:59:22.992Z,9.57
2024-01-14T11:02:15.663Z,8.27
2024-01-14T11:04:56.730Z,9.17
2024-01-14T11:07:37.476Z,9.27
2024-01-14T11:10:18.885Z,8.53
2024-01-14T11:13:23.839Z,8.23
2024-01-14T11:16:34.622Z,8.43
2024-01-14T11:19:29.478Z,9.33
2024-01-14T11:22:30.675Z,8.97
2024-01-14T11:25:19.006Z,9.53
2024-01-14T11:27:59.004Z,11.37
2024-01-14T11:30:48.825Z,9.53
2024-01-14T11:33:31.162Z,8.43
2024-01-14T11:36:11.922Z,8.80
2024-01-14T11:38:54.803Z,9.57
2024-01-14T11:41:37.868Z,8.60
2024-01-14T11:44:32.027Z,9.13
2024-01-14T11:47:12.195Z,9.30
2024-01-14T11:49:53.004Z,10.27
2024-01-14T11:52:36.636Z,10.03
2024-01-14T11:55:25.997Z,9.33
2024-01-14T11:58:17.822Z,9.67
2024-01-14T12:00:59.170Z,10.00
2024-01-14T12:03:39.542Z,10.43
2024-01-14T12:06:19.928Z,10.77
2024-01-14T12:09:01.774Z,11.00
2024-01-14T12:11:42.733Z,10.03
2024-01-14T12:14:22.973Z,10.53
2024-01-14T12:17:03.939Z,10.27
2024-01-14T12:19:44.147Z,10.30
2024-01-14T12:22:24.416Z,11.37
2024-01-14T12:25:05.923Z,11.90
2024-01-14T12:27:46.169Z,12.80
2024-01-14T12:30:37.377Z,11.47
2024-01-14T12:33:18.515Z,11.30
2024-01-14T12:35:58.754Z,10.77
2024-01-14T12:38:38.839Z,10.07
2024-01-14T12:41:19.077Z,11.60
2024-01-14T12:43:59.365Z,11.27
2024-01-14T12:46:48.014Z,10.33
2024-01-14T12:49:33.456Z,10.27
2024-01-14T12:52:14.178Z,10.30
2024-01-14T12:54:54.150Z,10.30
2024-01-14T12:57:34.468Z,9.93
2024-01-14T13:00:14.854Z,9.60
2024-01-14T13:02:55.273Z,8.57
2024-01-14T13:05:36.656Z,10.87
2024-01-14T13:08:17.097Z,11.20
2024-01-14T13:10:56.946Z,10.17
2024-01-14T13:13:38.977Z,11.00
2024-01-14T13:16:19.349Z,11.07
2024-01-14T13:18:59.753Z,11.07
2024-01-14T13:21:39.957Z,11.67
2024-01-14T13:24:23.043Z,10.50
2024-01-14T13:27:03.435Z,10.63
2024-01-14T13:29:43.746Z,11.57
2024-01-14T13:32:24.310Z,10.77
2024-01-14T13:35:06.558Z,11.60
2024-01-14T13:37:46.966Z,9.50
2024-01-14T13:40:27.346Z,11.03
2024-01-14T13:43:07.658Z,11.00
2024-01-14T13:45:47.772Z,10.40
2024-01-14T13:48:28.411Z,10.63
2024-01-14T13:51:08.691Z,8.93
2024-01-14T13:53:58.975Z,10.10
2024-01-14T13:56:49.781Z,8.93
2024-01-14T13:59:30.299Z,9.63
2024-01-14T14:02:15.127Z,7.33
2024-01-14T14:05:06.464Z,8.37
2024-01-14T14:07:49.449Z,8.03
2024-01-14T14:10:29.530Z,9.40
2024-01-14T14:13:09.914Z,7.73
2024-01-14T14:15:50.200Z,9.77
2024-01-14T14:18:30.378Z,9.53
2024-01-14T14:21:11.034Z,9.40
2024-01-14T14:23:52.280Z,9.63
2024-01-14T14:26:32.339Z,10.13
2024-01-14T14:29:12.466Z,12.57
2024-01-14T14:31:53.421Z,9.43
2024-01-14T14:34:36.325Z,9.47
2024-01-14T14:37:17.344Z,8.33
2024-01-14T14:39:57.572Z,9.47
2024-01-14T14:42:38.222Z,7.77
2024-01-14T14:45:18.739Z,8.77
2024-01-14T14:47:59.056Z,8.13
2024-01-14T14:50:39.378Z,7.10
2024-01-14T14:53:21.635Z,7.67
2024-01-14T14:56:01.897Z,7.70
2024-01-14T14:58:42.262Z,8.17
2024-01-14T15:01:32.235Z,7.77
2024-01-14T15:04:19.011Z,7.40
2024-01-14T15:06:59.435Z,6.53
2024-01-14T15:09:39.715Z,6.87
2024-01-14T15:12:20.020Z,7.50
2024-01-14T15:15:00.701Z,7.67
2024-01-14T15:17:40.977Z,6.57
2024-01-14T15:20:21.385Z,6.50
2024-01-14T15:23:01.580Z,7.13
2024-01-14T15:25:41.962Z,6.73
2024-01-14T15:28:22.235Z,7.20
2024-01-14T15:31:07.854Z,6.77
2024-01-14T15:33:49.614Z,7.70
2024-01-14T15:36:30.698Z,8.50
2024-01-14T15:39:11.804Z,9.37
2024-01-14T15:41:52.277Z,7.83
2024-01-14T15:44:34.088Z,8.30
2024-01-14T15:47:14.712Z,9.17
2024-01-14T15:49:54.757Z,8.07
2024-01-14T15:52:35.038Z,9.00
2024-01-14T15:55:15.234Z,9.47
2024-01-14T15:57:55.341Z,8.93
2024-01-14T16:00:35.447Z,7.30
2024-01-14T16:03:15.775Z,8.53
2024-01-14T16:05:56.114Z,7.60
2024-01-14T16:08:37.367Z,7.37
2024-01-14T16:11:17.769Z,7.10
2024-01-14T16:13:58.169Z,9.33
2024-01-14T16:16:38.776Z,8.33
2024-01-14T16:19:19.147Z,8.43
2024-01-14T16:21:59.333Z,8.47
2024-01-14T16:24:39.592Z,9.27
2024-01-14T16:27:19.663Z,8.67
2024-01-14T16:30:00.236Z,7.63
2024-01-14T16:32:41.464Z,7.80
2024-01-14T16:35:22.002Z,7.47
2024-01-14T16:38:02.537Z,7.70
2024-01-14T16:40:46.110Z,8.17
2024-01-14T16:43:30.438Z,7.10
2024-01-14T16:46:10.405Z,8.67
2024-01-14T16:48:50.852Z,8.97
2024-01-14T16:51:31.507Z,9.30
2024-01-14T16:54:11.993Z,9.80
2024-01-14T16:56:52.332Z,9.00
2024-01-14T16:59:32.383Z,7.30
2024-01-14T17:02:12.510Z,7.00
2024-01-14T17:04:53.227Z,7.43
2024-01-14T17:07:33.453Z,7.30
2024-01-14T17:10:13.519Z,8.43
2024-01-14T17:12:53.959Z,7.90
2024-01-14T17:15:34.968Z,8.43
2024-01-14T17:18:15.027Z,9.23
2024-01-14T17:20:55.170Z,10.20
2024-01-14T17:23:35.608Z,8.30
2024-01-14T17:26:16.799Z,8.93
2024-01-14T17:28:57.004Z,8.80
2024-01-14T17:31:38.210Z,9.47
2024-01-14T17:34:18.857Z,8.60
2024-01-14T17:37:00.181Z,8.40
2024-01-14T17:39:40.497Z,9.50
2024-01-14T17:42:20.597Z,8.87
2024-01-14T17:45:00.732Z,8.70
2024-01-14T17:47:41.040Z,9.67
2024-01-14T17:50:22.340Z,8.53
2024-01-14T17:53:05.732Z,9.10
2024-01-14T17:55:46.605Z,8.83
2024-01-14T17:58:26.791Z,10.90
2024-01-14T18:01:10.639Z,9.53
2024-01-14T18:03:51.682Z,8.47
2024-01-14T18:06:32.216Z,8.47
2024-01-14T18:09:15.059Z,8.87
2024-01-14T18:11:55.069Z,9.50
2024-01-14T18:14:36.145Z,10.20
2024-01-14T18:17:16.193Z,8.67
2024-01-14T18:19:56.604Z,8.17
2024-01-14T18:22:37.262Z,9.20
2024-01-14T18:25:18.064Z,8.17
2024-01-14T18:27:58.147Z,8.60
2024-01-14T18:30:39.057Z,8.63
2024-01-14T18:33:19.805Z,9.07
2024-01-14T18:36:00.006Z,8.80
2024-01-14T18:38:40.852Z,8.47
2024-01-14T18:41:21.518Z,9.33
2024-01-14T18:44:02.663Z,8.40
2024-01-14T18:46:43.100Z,9.33
2024-01-14T18:49:24.209Z,8.77
2024-01-14T18:52:06.513Z,9.13
2024-01-14T18:54:46.901Z,9.43
2024-01-14T18:57:26.838Z,9.63
2024-01-14T19:00:08.639Z,9.03
2024-01-14T19:02:49.194Z,10.10
2024-01-14T19:05:29.820Z,9.40
2024-01-14T19:08:10.242Z,10.13
2024-01-14T19:10:50.484Z,9.93
2024-01-14T19:13:30.429Z,9.83
2024-01-14T19:16:12.049Z,8.40
2024-01-14T19:18:52.260Z,11.23
2024-01-14T19:21:33.272Z,10.67
2024-01-14T19:24:14.603Z,10.37
2024-01-14T19:26:56.002Z,11.20
2024-01-14T19:29:36.315Z,11.53
2024-01-14T19:32:16.654Z,10.63
2024-01-14T19:34:56.838Z,10.87
2024-01-14T19:37:36.936Z,10.73
2024-01-14T19:40:17.095Z,11.63
2024-01-14T19:42:57.339Z,10.60
2024-01-14T19:45:37.471Z,10.57
2024-01-14T19:48:18.012Z,10.87
2024-01-14T19:50:58.779Z,10.13
2024-01-14T19:53:39.682Z,9.60
2024-01-14T19:56:23.343Z,10.37
2024-01-14T19:59:03.308Z,9.90
2024-01-14T20:01:43.693Z,9.07
2024-01-14T20:04:23.696Z,11.07
2024-01-14T20:07:04.322Z,13.13
2024-01-14T20:09:44.563Z,11.43
2024-01-14T20:12:24.836Z,12.23
2024-01-14T20:15:05.525Z,11.03
2024-01-14T20:17:45.603Z,12.30
2024-01-14T20:20:25.912Z,10.47
2024-01-14T20:23:05.930Z,11.27
2024-01-14T20:25:45.914Z,10.77
2024-01-14T20:28:26.100Z,11.07
2024-01-14T20:31:06.520Z,11.30
2024-01-14T20:33:47.255Z,9.73
2024-01-14T20:36:28.961Z,9.70
2024-01-14T20:39:09.861Z,10.93
2024-01-14T20:41:50.159Z,10.33
2024-01-14T20:44:30.608Z,10.17
2024-01-14T20:47:10.562Z,9.77
2024-01-14T20:49:50.824Z,9.87
2024-01-14T20:52:31.080Z,10.63
2024-01-14T20:55:11.268Z,9.77
2024-01-14T20:57:51.659Z,10.27
2024-01-14T21:00:32.014Z,9.13
2024-01-14T21:03:12.890Z,11.37
2024-01-14T21:05:53.173Z,10.13
2024-01-14T21:08:33.477Z,11.03
2024-01-14T21:11:15.295Z,10.70
2024-01-14T21:13:55.695Z,9.97
2024-01-14T21:16:35.921Z,11.00
2024-01-14T21:19:16.141Z,9.47
2024-01-14T21:21:57.743Z,11.23
2024-01-14T21:24:38.250Z,12.17
2024-01-14T21:27:18.221Z,11.57
2024-01-14T21:29:58.631Z,10.33
2024-01-14T21:32:38.992Z,10.43
2024-01-14T21:35:19.025Z,10.53
2024-01-14T21:37:59.038Z,11.13
2024-01-14T21:40:39.128Z,11.97
2024-01-14T21:43:21.496Z,12.40
2024-01-14T21:46:01.754Z,13.00
2024-01-14T21:48:42.672Z,11.87
2024-01-14T21:51:22.727Z,12.97
2024-01-14T21:54:03.393Z,11.13
2024-01-14T21:56:43.384Z,11.67
2024-01-14T21:59:23.757Z,12.93
2024-01-14T22:02:04.095Z,12.27
2024-01-14T22:04:44.431Z,10.57
2024-01-14T22:07:24.403Z,12.47
2024-01-14T22:10:04.659Z,13.07
2024-01-14T22:12:44.669Z,13.13
2024-01-14T22:15:25.262Z,14.30
2024-01-14T22:18:05.837Z,12.20
2024-01-14T22:20:46.529Z,13.13
2024-01-14T22:23:26.572Z,13.60
2024-01-14T22:26:07.765Z,13.97
2024-01-14T22:28:47.602Z,13.53
2024-01-14T22:31:27.992Z,12.70
2024-01-14T22:34:08.175Z,14.47
2024-01-14T22:36:49.704Z,15.47
2024-01-14T22:39:30.470Z,11.83
2024-01-14T22:42:11.079Z,13.27
2024-01-14T22:44:51.258Z,13.23
2024-01-14T22:47:31.622Z,13.27
2024-01-14T22:50:11.614Z,12.07
2024-01-14T22:52:51.688Z,11.77
2024-01-14T22:55:31.785Z,13.13
2024-01-14T22:58:13.046Z,10.27
2024-01-14T23:00:53.440Z,10.80
2024-01-14T23:03:33.888Z,12.33
2024-01-14T23:06:15.406Z,11.30
2024-01-14T23:08:55.851Z,10.83
2024-01-14T23:11:36.159Z,10.60
2024-01-14T23:14:16.381Z,11.40
2024-01-14T23:16:56.778Z,11.23
2024-01-14T23:19:36.815Z,11.37
2024-01-14T23:22:17.339Z,10.10
2024-01-14T23:24:57.694Z,11.50
2024-01-14T23:27:40.806Z,10.43
2024-01-14T23:30:22.240Z,10.83
2024-01-14T23:33:03.182Z,12.87
2024-01-14T23:35:43.683Z,12.80
2024-01-14T23:38:23.848Z,11.37
2024-01-14T23:41:04.246Z,12.03
2024-01-14T23:43:44.393Z,11.77
2024-01-14T23:46:25.716Z,11.37
2024-01-14T23:49:07.342Z,10.33
2024-01-14T23:51:47.654Z,11.60
2024-01-14T23:54:28.702Z,10.50
2024-01-14T23:57:08.679Z,11.33
2024-01-14T23:59:48.830Z,11.83
